createdAt,value
2017-11-25T00:01:10.063Z,95.96
2017-11-25T00:03:44.824Z,95.92
2017-11-25T00:06:19.646Z,95.85
2017-11-25T00:08:54.766Z,95.86
2017-11-25T00:11:29.710Z,95.87
2017-11-25T00:14:04.363Z,95.83
2017-11-25T00:16:39.660Z,95.82
2017-11-25T00:19:14.868Z,95.78
2017-11-25T00:21:49.738Z,95.73
2017-11-25T00:24:24.590Z,95.66
2017-11-25T00:26:59.447Z,95.54
2017-11-25T00:29:34.385Z,95.52
2017-11-25T00:32:09.102Z,95.50
2017-11-25T00:34:44.255Z,95.54
2017-11-25T00:37:19.382Z,95.58
2017-11-25T00:39:54.291Z,95.54
2017-11-25T00:42:29.325Z,95.42
2017-11-25T00:45:04.251Z,95.35
2017-11-25T00:47:38.797Z,95.35
2017-11-25T00:50:13.280Z,95.36
2017-11-25T00:52:47.955Z,95.39
2017-11-25T00:55:22.782Z,95.40
2017-11-25T00:57:57.711Z,95.38
2017-11-25T01:00:32.664Z,95.53
2017-11-25T01:03:07.292Z,95.65
2017-11-25T01:05:42.319Z,95.87
2017-11-25T01:08:17.099Z,95.96
2017-11-25T01:10:52.281Z,96.04
2017-11-25T01:13:27.303Z,96.12
2017-11-25T01:16:02.171Z,96.21
2017-11-25T01:18:36.944Z,96.17
2017-11-25T01:21:11.859Z,96.09
2017-11-25T01:23:46.696Z,96.03
2017-11-25T01:26:21.699Z,95.95
2017-11-25T01:28:56.747Z,95.77
2017-11-25T01:31:31.651Z,95.57
2017-11-25T01:34:06.575Z,95.40
2017-11-25T01:36:41.066Z,95.19
2017-11-25T01:39:16.370Z,95.09
2017-11-25T01:41:50.986Z,95.11
2017-11-25T01:44:25.786Z,95.03
2017-11-25T01:47:00.510Z,94.93
2017-11-25T01:49:35.471Z,94.85
2017-11-25T01:52:10.273Z,94.90
2017-11-25T01:54:45.414Z,95.05
2017-11-25T01:57:19.844Z,95.17
2017-11-25T01:59:54.710Z,95.35
2017-11-25T02:02:29.682Z,95.37
2017-11-25T02:05:04.479Z,95.40
2017-11-25T02:07:39.531Z,95.67
2017-11-25T02:10:14.091Z,95.93
2017-11-25T02:12:48.590Z,96.00
2017-11-25T02:15:23.358Z,96.07
2017-11-25T02:17:58.549Z,95.99
2017-11-25T02:20:33.000Z,95.73
2017-11-25T02:23:07.660Z,95.59
2017-11-25T02:25:42.482Z,95.49
2017-11-25T02:28:17.583Z,95.53
2017-11-25T02:30:51.839Z,95.66
2017-11-25T02:33:27.166Z,95.75
2017-11-25T02:36:01.663Z,95.74
2017-11-25T02:38:36.798Z,95.69
2017-11-25T02:41:11.911Z,95.62
2017-11-25T02:43:46.248Z,95.54
2017-11-25T02:46:20.899Z,95.50
2017-11-25T02:48:55.552Z,95.46
2017-11-25T02:51:30.162Z,95.47
2017-11-25T02:54:04.812Z,95.37
2017-11-25T02:56:39.587Z,95.29
2017-11-25T02:59:14.380Z,95.29
2017-11-25T03:01:49.671Z,95.36
2017-11-25T03:04:24.199Z,95.38
2017-11-25T03:06:59.458Z,95.28
2017-11-25T03:09:34.518Z,95.23
2017-11-25T03:12:08.983Z,95.22
2017-11-25T03:14:44.033Z,95.19
2017-11-25T03:17:18.915Z,95.36
2017-11-25T03:19:53.544Z,95.48
2017-11-25T03:22:28.287Z,95.63
2017-11-25T03:25:03.115Z,95.85
2017-11-25T03:27:38.073Z,96.12
2017-11-25T03:30:12.876Z,96.35
2017-11-25T03:32:47.740Z,96.28
2017-11-25T03:35:22.226Z,96.14
2017-11-25T03:37:57.146Z,95.96
2017-11-25T03:40:31.666Z,95.84
2017-11-25T03:43:06.503Z,95.77
2017-11-25T03:45:41.332Z,95.74
2017-11-25T03:48:16.243Z,95.65
2017-11-25T03:50:51.067Z,95.69
2017-11-25T03:53:26.411Z,95.74
2017-11-25T03:56:01.013Z,95.87
2017-11-25T03:58:35.795Z,96.19
2017-11-25T04:01:10.476Z,96.41
2017-11-25T04:03:45.426Z,96.54
2017-11-25T04:06:20.362Z,96.53
2017-11-25T04:08:55.075Z,96.59
2017-11-25T04:11:30.535Z,96.67
2017-11-25T04:14:05.491Z,96.74
2017-11-25T04:16:40.392Z,96.78
2017-11-25T04:19:15.471Z,97.13
2017-11-25T04:21:50.399Z,97.80
2017-11-25T04:24:25.426Z,98.16
2017-11-25T04:26:59.827Z,98.45
2017-11-25T04:29:35.078Z,99.16
2017-11-25T04:32:09.939Z,99.76
2017-11-25T04:34:44.647Z,100.00
2017-11-25T04:37:20.028Z,100.00
2017-11-25T04:39:55.315Z,100.00
2017-11-25T04:42:30.052Z,100.00
2017-11-25T04:45:04.990Z,100.00
2017-11-25T04:47:39.748Z,100.00
2017-11-25T04:50:14.811Z,100.00
2017-11-25T04:52:49.808Z,100.00
2017-11-25T04:55:24.383Z,100.00
2017-11-25T04:57:58.923Z,99.73
2017-11-25T05:00:33.767Z,99.35
2017-11-25T05:03:08.272Z,98.93
2017-11-25T05:05:43.013Z,98.38
2017-11-25T05:08:17.822Z,98.23
2017-11-25T05:10:52.823Z,98.17
2017-11-25T05:13:28.047Z,98.03
2017-11-25T05:16:02.913Z,97.80
2017-11-25T05:18:38.142Z,97.74
2017-11-25T05:21:12.299Z,97.68
2017-11-25T05:23:47.238Z,97.62
2017-11-25T05:26:21.846Z,97.61
2017-11-25T05:28:56.838Z,97.59
2017-11-25T05:31:31.779Z,97.32
2017-11-25T05:34:06.891Z,97.13
2017-11-25T05:36:42.323Z,97.38
2017-11-25T05:39:17.057Z,97.62
2017-11-25T05:41:51.811Z,97.59
2017-11-25T05:44:26.699Z,97.49
2017-11-25T05:47:01.861Z,97.54
2017-11-25T05:49:36.295Z,97.50
2017-11-25T05:52:11.133Z,97.52
2017-11-25T05:54:46.191Z,97.44
2017-11-25T05:57:20.972Z,97.34
2017-11-25T05:59:55.726Z,97.25
2017-11-25T06:02:30.534Z,97.10
2017-11-25T06:05:05.290Z,97.13
2017-11-25T06:07:40.167Z,97.21
2017-11-25T06:10:15.169Z,97.17
2017-11-25T06:12:50.311Z,97.01
2017-11-25T06:15:24.934Z,97.03
2017-11-25T06:17:59.855Z,96.99
2017-11-25T06:20:34.855Z,97.00
2017-11-25T06:23:09.663Z,96.80
2017-11-25T06:25:44.475Z,96.47
2017-11-25T06:28:19.379Z,96.46
2017-11-25T06:30:54.395Z,96.50
2017-11-25T06:33:29.149Z,96.47
2017-11-25T06:36:04.052Z,96.44
2017-11-25T06:38:38.998Z,96.49
2017-11-25T06:41:13.910Z,96.48
2017-11-25T06:43:48.825Z,96.19
2017-11-25T06:46:23.927Z,96.09
2017-11-25T06:48:59.013Z,96.11
2017-11-25T06:51:33.875Z,96.31
2017-11-25T06:54:08.927Z,96.41
2017-11-25T06:56:43.803Z,96.45
2017-11-25T06:59:18.465Z,96.40
2017-11-25T07:01:53.415Z,96.45
2017-11-25T07:04:28.231Z,96.47
2017-11-25T07:07:03.166Z,96.42
2017-11-25T07:09:38.219Z,96.39
2017-11-25T07:12:13.274Z,96.27
2017-11-25T07:14:47.982Z,95.98
2017-11-25T07:17:22.803Z,95.89
2017-11-25T07:19:57.348Z,95.90
2017-11-25T07:22:32.259Z,95.83
2017-11-25T07:25:06.778Z,95.64
2017-11-25T07:27:41.582Z,95.45
2017-11-25T07:30:17.352Z,95.43
2017-11-25T07:32:52.421Z,95.45
2017-11-25T07:35:27.197Z,95.41
2017-11-25T07:38:02.051Z,95.34
2017-11-25T07:40:36.778Z,95.23
2017-11-25T07:43:12.006Z,95.14
2017-11-25T07:45:46.866Z,95.15
2017-11-25T07:48:21.991Z,95.23
2017-11-25T07:50:56.933Z,95.24
2017-11-25T07:53:32.046Z,95.16
2017-11-25T07:56:06.967Z,95.04
2017-11-25T07:58:41.909Z,94.93
2017-11-25T08:01:16.955Z,94.83
2017-11-25T08:03:51.558Z,94.62
2017-11-25T08:06:26.103Z,94.62
2017-11-25T08:09:01.252Z,94.63
2017-11-25T08:11:35.783Z,94.44
2017-11-25T08:14:10.507Z,94.51
2017-11-25T08:16:45.323Z,94.66
2017-11-25T08:19:20.266Z,94.70
2017-11-25T08:21:54.762Z,94.78
2017-11-25T08:24:29.483Z,94.99
2017-11-25T08:27:04.531Z,95.11
2017-11-25T08:29:39.590Z,95.08
2017-11-25T08:32:14.447Z,95.04
2017-11-25T08:34:49.374Z,95.00
2017-11-25T08:37:24.098Z,95.15
2017-11-25T08:39:58.956Z,95.15
2017-11-25T08:42:33.936Z,94.90
2017-11-25T08:45:09.076Z,94.85
2017-11-25T08:47:43.847Z,94.87
2017-11-25T08:50:18.643Z,94.91
2017-11-25T08:52:53.398Z,94.98
2017-11-25T08:55:28.654Z,94.98
2017-11-25T08:58:03.563Z,95.01
2017-11-25T09:00:37.943Z,95.14
2017-11-25T09:03:13.054Z,95.21
2017-11-25T09:05:48.052Z,95.12
2017-11-25T09:08:23.003Z,94.87
2017-11-25T09:10:58.274Z,94.62
2017-11-25T09:13:33.181Z,94.74
2017-11-25T09:16:08.211Z,94.83
2017-11-25T09:18:43.115Z,94.64
2017-11-25T09:21:17.743Z,94.81
2017-11-25T09:23:52.666Z,94.98
2017-11-25T09:26:27.301Z,94.80
2017-11-25T09:29:02.175Z,94.43
2017-11-25T09:31:37.099Z,93.88
2017-11-25T09:34:11.703Z,93.88
2017-11-25T09:36:46.883Z,93.93
2017-11-25T09:39:21.466Z,94.20
2017-11-25T09:41:56.118Z,94.36
2017-11-25T09:44:30.511Z,94.61
2017-11-25T09:47:05.366Z,94.32
2017-11-25T09:49:40.115Z,94.02
2017-11-25T09:52:14.743Z,93.84
2017-11-25T09:54:49.614Z,94.16
2017-11-25T09:57:24.293Z,93.20
2017-11-25T09:59:59.723Z,92.06
2017-11-25T10:02:34.722Z,91.42
2017-11-25T10:05:09.967Z,91.70
2017-11-25T10:07:44.895Z,89.97
2017-11-25T10:10:19.618Z,88.75
2017-11-25T10:12:54.684Z,88.10
2017-11-25T10:15:29.802Z,88.62
2017-11-25T10:18:04.862Z,88.34
2017-11-25T10:20:39.566Z,88.15
2017-11-25T10:23:14.903Z,88.37
2017-11-25T10:25:49.862Z,86.80
2017-11-25T10:28:24.763Z,85.59
2017-11-25T10:30:59.755Z,84.20
2017-11-25T10:33:34.750Z,83.90
2017-11-25T10:36:09.842Z,79.64
2017-11-25T10:38:44.718Z,79.62
2017-11-25T10:41:19.742Z,75.36
2017-11-25T10:43:54.350Z,76.11
2017-11-25T10:46:28.659Z,76.29
2017-11-25T10:49:03.619Z,77.24
2017-11-25T10:51:38.446Z,77.67
2017-11-25T10:54:13.406Z,76.99
2017-11-25T10:56:47.987Z,77.62
2017-11-25T10:59:23.175Z,77.66
2017-11-25T11:09:22.281Z,77.90
2017-11-25T11:11:57.203Z,78.01
2017-11-25T11:14:32.130Z,81.63
2017-11-25T11:17:06.582Z,82.59
2017-11-25T11:19:41.787Z,80.40
2017-11-25T11:22:16.710Z,76.35
2017-11-25T11:24:51.287Z,72.81
2017-11-25T11:27:26.490Z,72.10
2017-11-25T11:30:01.276Z,71.05
2017-11-25T11:32:36.452Z,70.16
2017-11-25T11:35:11.554Z,69.70
2017-11-25T11:37:46.893Z,66.79
2017-11-25T11:40:21.636Z,67.67
2017-11-25T11:42:56.943Z,67.55
2017-11-25T11:45:32.023Z,67.57
2017-11-25T11:48:06.926Z,67.50
2017-11-25T11:50:41.721Z,69.11
2017-11-25T11:53:16.827Z,70.95
2017-11-25T11:55:51.821Z,71.60
2017-11-25T11:58:26.839Z,71.31
2017-11-25T12:01:01.318Z,71.33
2017-11-25T12:03:36.326Z,70.68
2017-11-25T12:06:11.458Z,72.43
2017-11-25T12:08:46.103Z,71.41
2017-11-25T12:11:21.142Z,70.87
2017-11-25T12:13:56.262Z,70.61
2017-11-25T12:16:31.150Z,71.58
2017-11-25T12:19:06.257Z,72.92
2017-11-25T12:21:41.537Z,73.40
2017-11-25T12:24:16.667Z,73.68
2017-11-25T12:26:51.961Z,72.18
2017-11-25T12:29:27.107Z,72.96
2017-11-25T12:32:02.033Z,73.70
2017-11-25T12:34:37.296Z,74.01
2017-11-25T12:37:12.230Z,74.89
2017-11-25T12:39:47.113Z,75.99
2017-11-25T12:42:22.110Z,77.10
2017-11-25T12:44:56.917Z,76.23
2017-11-25T12:47:31.814Z,76.41
2017-11-25T12:50:06.222Z,76.53
2017-11-25T12:52:41.433Z,76.26
2017-11-25T12:55:16.226Z,75.42
2017-11-25T12:57:51.206Z,75.23
2017-11-25T13:00:26.134Z,76.10
2017-11-25T13:03:01.099Z,76.88
2017-11-25T13:05:36.126Z,76.70
2017-11-25T13:08:11.082Z,76.23
2017-11-25T13:10:45.891Z,76.14
2017-11-25T13:13:20.891Z,75.50
2017-11-25T13:15:56.096Z,74.87
2017-11-25T13:18:31.105Z,74.93
2017-11-25T13:21:06.328Z,75.04
2017-11-25T13:23:41.454Z,74.85
2017-11-25T13:26:16.630Z,74.30
2017-11-25T13:28:52.797Z,73.91
2017-11-25T13:31:27.388Z,73.77
2017-11-25T13:34:02.615Z,74.44
2017-11-25T13:36:37.711Z,74.93
2017-11-25T13:39:12.576Z,75.27
2017-11-25T13:41:47.697Z,75.83
2017-11-25T13:44:22.690Z,76.25
2017-11-25T13:46:57.626Z,76.50
2017-11-25T13:49:32.786Z,77.18
2017-11-25T13:52:07.734Z,77.40
2017-11-25T13:54:42.742Z,76.60
2017-11-25T13:57:17.443Z,77.22
2017-11-25T13:59:52.794Z,76.82
2017-11-25T14:02:27.698Z,76.26
2017-11-25T14:05:02.386Z,75.92
2017-11-25T14:07:36.932Z,76.71
2017-11-25T14:10:11.544Z,76.37
2017-11-25T14:12:46.235Z,76.20
2017-11-25T14:15:20.118Z,76.09
2017-11-25T14:17:53.970Z,76.46
2017-11-25T14:20:28.838Z,76.81
2017-11-25T14:23:04.081Z,77.03
2017-11-25T14:25:38.954Z,77.42
2017-11-25T14:28:13.186Z,77.48
2017-11-25T14:30:48.512Z,77.34
2017-11-25T14:33:23.394Z,77.70
2017-11-25T14:35:58.402Z,78.17
2017-11-25T14:38:33.326Z,78.36
2017-11-25T14:41:08.565Z,78.32
2017-11-25T14:43:43.471Z,78.47
2017-11-25T14:46:18.250Z,78.73
2017-11-25T14:48:52.637Z,79.03
2017-11-25T14:51:27.644Z,79.41
2017-11-25T14:54:02.608Z,79.99
2017-11-25T14:56:37.618Z,80.18
2017-11-25T14:59:12.628Z,80.45
2017-11-25T15:01:47.750Z,80.77
2017-11-25T15:04:22.555Z,80.78
2017-11-25T15:06:57.775Z,80.67
2017-11-25T15:09:32.762Z,80.74
2017-11-25T15:12:07.864Z,81.19
2017-11-25T15:14:42.308Z,81.24
2017-11-25T15:17:17.343Z,81.07
2017-11-25T15:19:52.624Z,81.21
2017-11-25T15:22:27.822Z,81.37
2017-11-25T15:25:02.730Z,81.53
2017-11-25T15:27:37.895Z,81.79
2017-11-25T15:30:12.745Z,82.05
2017-11-25T15:32:46.975Z,82.11
2017-11-25T15:35:21.701Z,82.01
2017-11-25T15:37:56.487Z,82.11
2017-11-25T15:40:30.539Z,82.06
2017-11-25T15:43:05.529Z,82.08
2017-11-25T15:45:40.295Z,82.14
2017-11-25T15:48:15.413Z,82.15
2017-11-25T15:50:49.891Z,82.14
2017-11-25T15:53:25.002Z,82.15
2017-11-25T15:55:59.759Z,82.03
2017-11-25T15:58:34.262Z,81.96
2017-11-25T16:01:09.287Z,82.04
2017-11-25T16:03:44.162Z,82.00
2017-11-25T16:06:18.859Z,82.10
2017-11-25T16:08:53.975Z,82.15
2017-11-25T16:11:28.867Z,81.92
2017-11-25T16:14:03.978Z,82.00
2017-11-25T16:16:39.112Z,82.23
2017-11-25T16:19:14.034Z,82.18
2017-11-25T16:21:48.731Z,82.16
2017-11-25T16:24:24.084Z,82.48
2017-11-25T16:26:59.114Z,82.45
2017-11-25T16:29:34.092Z,82.58
2017-11-25T16:32:09.247Z,82.83
2017-11-25T16:34:43.923Z,83.02
2017-11-25T16:37:18.750Z,83.27
2017-11-25T16:39:53.926Z,83.31
2017-11-25T16:42:28.774Z,83.32
2017-11-25T16:45:03.730Z,83.28
2017-11-25T16:47:38.847Z,83.14
2017-11-25T16:50:13.999Z,82.98
2017-11-25T16:52:49.027Z,82.55
2017-11-25T16:55:24.037Z,82.63
2017-11-25T16:57:58.964Z,82.73
2017-11-25T17:00:34.071Z,82.66
2017-11-25T17:03:09.167Z,82.92
2017-11-25T17:05:44.371Z,82.87
2017-11-25T17:08:19.523Z,82.93
2017-11-25T17:10:54.821Z,83.23
2017-11-25T17:13:29.979Z,83.43
2017-11-25T17:16:05.305Z,83.62
2017-11-25T17:18:40.162Z,83.90
2017-11-25T17:21:15.206Z,84.11
2017-11-25T17:23:50.337Z,84.23
2017-11-25T17:26:25.143Z,84.28
2017-11-25T17:29:00.054Z,84.55
2017-11-25T17:31:36.534Z,84.88
2017-11-25T17:34:11.181Z,85.07
2017-11-25T17:36:46.280Z,85.19
2017-11-25T17:39:21.206Z,85.26
2017-11-25T17:41:56.459Z,85.42
2017-11-25T17:44:31.533Z,85.60
2017-11-25T17:47:06.644Z,85.80
2017-11-25T17:49:41.494Z,85.87
2017-11-25T17:52:16.518Z,85.95
2017-11-25T17:54:51.550Z,85.97
2017-11-25T17:57:26.459Z,86.01
2017-11-25T18:00:01.767Z,86.05
2017-11-25T18:02:36.608Z,86.08
2017-11-25T18:05:11.427Z,86.22
2017-11-25T18:07:46.546Z,86.30
2017-11-25T18:10:21.473Z,86.45
2017-11-25T18:12:56.661Z,86.61
2017-11-25T18:15:31.898Z,86.82
2017-11-25T18:18:07.009Z,86.96
2017-11-25T18:20:42.107Z,87.14
2017-11-25T18:23:17.106Z,87.27
2017-11-25T18:25:52.264Z,87.48
2017-11-25T18:28:27.086Z,87.65
2017-11-25T18:31:02.098Z,87.65
2017-11-25T18:33:37.132Z,87.89
2017-11-25T18:36:12.134Z,87.96
2017-11-25T18:38:47.255Z,88.08
2017-11-25T18:41:22.303Z,88.12
2017-11-25T18:43:57.340Z,88.20
2017-11-25T18:46:32.462Z,88.32
2017-11-25T18:49:07.471Z,88.38
2017-11-25T18:51:42.396Z,88.24
2017-11-25T18:54:17.406Z,88.27
2017-11-25T18:56:52.412Z,88.33
2017-11-25T18:59:27.567Z,88.36
2017-11-25T19:02:02.705Z,88.54
2017-11-25T19:04:37.827Z,88.58
2017-11-25T19:07:12.759Z,88.63
2017-11-25T19:09:48.086Z,88.74
2017-11-25T19:12:22.986Z,88.76
2017-11-25T19:14:57.916Z,88.82
2017-11-25T19:17:32.995Z,89.01
2017-11-25T19:20:08.007Z,88.91
2017-11-25T19:22:42.955Z,89.02
2017-11-25T19:25:17.784Z,89.10
2017-11-25T19:27:52.682Z,89.07
2017-11-25T19:30:27.888Z,88.99
2017-11-25T19:33:03.451Z,89.00
2017-11-25T19:35:38.395Z,89.06
2017-11-25T19:38:13.291Z,89.05
2017-11-25T19:40:48.206Z,88.82
2017-11-25T19:43:23.230Z,88.95
2017-11-25T19:45:58.292Z,89.13
2017-11-25T19:48:33.430Z,89.17
2017-11-25T19:51:08.568Z,89.28
2017-11-25T19:53:43.778Z,89.35
2017-11-25T19:56:18.594Z,89.19
2017-11-25T19:58:53.498Z,89.11
2017-11-25T20:01:28.818Z,88.90
2017-11-25T20:04:03.560Z,88.96
2017-11-25T20:06:38.846Z,88.81
2017-11-25T20:09:13.903Z,88.90
2017-11-25T20:11:48.599Z,88.96
2017-11-25T20:14:23.806Z,89.01
2017-11-25T20:16:58.810Z,89.10
2017-11-25T20:19:33.634Z,89.02
2017-11-25T20:22:08.567Z,88.89
2017-11-25T20:24:43.767Z,88.83
2017-11-25T20:27:18.971Z,88.94
2017-11-25T20:29:53.799Z,88.91
2017-11-25T20:32:29.067Z,88.80
2017-11-25T20:35:04.155Z,88.69
2017-11-25T20:37:38.898Z,88.68
2017-11-25T20:40:13.841Z,88.64
2017-11-25T20:42:48.234Z,88.86
2017-11-25T20:45:23.417Z,89.00
2017-11-25T20:47:58.240Z,89.20
2017-11-25T20:50:33.046Z,89.14
2017-11-25T20:53:08.174Z,89.23
2017-11-25T20:55:43.186Z,89.38
2017-11-25T20:58:18.262Z,89.45
2017-11-25T21:00:53.226Z,89.41
2017-11-25T21:03:28.066Z,89.43
2017-11-25T21:06:03.166Z,89.70
2017-11-25T21:08:38.295Z,89.60
2017-11-25T21:11:13.599Z,89.55
2017-11-25T21:13:48.931Z,89.63
2017-11-25T21:16:23.574Z,89.65
2017-11-25T21:18:58.308Z,89.67
2017-11-25T21:21:32.801Z,89.76
2017-11-25T21:24:07.839Z,89.78
2017-11-25T21:26:42.460Z,89.86
2017-11-25T21:29:17.169Z,90.10
2017-11-25T21:31:51.952Z,90.17
2017-11-25T21:34:26.586Z,90.43
2017-11-25T21:37:01.475Z,90.54
2017-11-25T21:39:36.512Z,90.31
2017-11-25T21:42:11.416Z,90.32
2017-11-25T21:44:46.240Z,90.26
2017-11-25T21:47:20.956Z,90.25
2017-11-25T21:49:56.042Z,90.16
2017-11-25T21:52:30.923Z,90.04
2017-11-25T21:55:06.028Z,89.89
2017-11-25T21:57:40.899Z,89.87
2017-11-25T22:00:15.854Z,89.92
2017-11-25T22:02:50.730Z,89.83
2017-11-25T22:05:25.596Z,89.78
2017-11-25T22:08:00.498Z,89.58
2017-11-25T22:10:35.395Z,89.51
2017-11-25T22:13:10.427Z,89.43
2017-11-25T22:15:45.238Z,89.29
2017-11-25T22:18:20.271Z,89.11
2017-11-25T22:20:55.244Z,89.15
2017-11-25T22:23:30.156Z,89.20
2017-11-25T22:26:04.552Z,89.39
2017-11-25T22:28:39.754Z,89.49
2017-11-25T22:31:14.930Z,89.60
2017-11-25T22:33:49.938Z,89.67
2017-11-25T22:36:25.048Z,100.00
2017-11-25T22:39:00.179Z,100.00
2017-11-25T22:41:35.298Z,94.50
2017-11-25T22:44:10.495Z,88.22
2017-11-25T22:46:45.675Z,87.63
2017-11-25T22:49:20.887Z,88.03
2017-11-25T22:51:55.932Z,88.55
2017-11-25T22:54:31.059Z,88.97
2017-11-25T22:57:06.272Z,89.40
2017-11-25T22:59:41.194Z,89.52
2017-11-25T23:02:16.095Z,89.79
2017-11-25T23:04:51.250Z,90.03
2017-11-25T23:07:26.052Z,90.27
2017-11-25T23:10:01.179Z,90.64
2017-11-25T23:12:36.177Z,90.82
2017-11-25T23:15:11.008Z,90.92
2017-11-25T23:17:46.005Z,91.00
2017-11-25T23:20:21.196Z,91.06
2017-11-25T23:22:56.002Z,91.11
2017-11-25T23:25:30.926Z,91.03
2017-11-25T23:28:05.929Z,90.85
2017-11-25T23:30:40.359Z,90.95
2017-11-25T23:33:15.379Z,90.86
2017-11-25T23:35:50.601Z,91.01
2017-11-25T23:38:25.617Z,91.28
2017-11-25T23:41:00.102Z,91.19
2017-11-25T23:43:35.051Z,91.07
2017-11-25T23:46:09.888Z,91.01
2017-11-25T23:48:44.623Z,91.07
2017-11-25T23:51:19.560Z,91.21
2017-11-25T23:53:54.406Z,91.41
2017-11-25T23:56:29.335Z,91.71
2017-11-25T23:59:04.122Z,91.74
